Historyczne dane pomiarowe

Dodano dane terminowe – wersja testowa.

Dane z okresu 1951-2019

Wersja bazy: 1.34 [2019-03-16, lista zmian], aktualizacja planowana na 2019-04-15

Dane meteo z obszaru Polski uzyskane na podstawie danych udostępnionych przez Instytut Meteorologii i Gospodarki Wodnej – Państwowy Instytut Badawczy.

 

Wybierz Datę:    

       

TemperaturaWilgotnośćWiatrCiśnienieOpadyŚniegCzas trwania zjawisk
 Stacja t tx tn tng RH VA  wxwx mslp ppp RRR   cm mm wxwxwxwxwxwxwx
1983-08-14 12.0 16.5 7.5--- 5.7 2.7---- 1.0------------
1983-08-13 14.8 22.1 13.4--- 8.0 3.3---- 9.3------------
1983-08-12 20.5 25.2 14.1--- 1.7 1.7---- 2.4------------
1983-08-11 19.9 25.5 14.6--- 3.3 1.7---- 0.0------------
1983-08-10 18.4 24.5 12.5--- 3.3 2.0---- 0.0------------
1983-08-09 17.6 25.0 11.3--- 5.0 2.7---- 11.6------------
1983-08-08 16.4 23.3 12.4--- 8.0 1.7---- 0.0------------
1983-08-07 15.1 20.5 12.7--- 6.7 1.3---- 11.8------------
1983-08-06 14.8 19.1 10.7--- 5.7 1.3---- 2.6------------
1983-08-05 12.8 16.1 6.8--- 6.0 4.7---- 0.0------------
1983-08-04 10.8 15.1 8.8--- 8.0 3.7---- 0.0------------
1983-08-03 18.0 22.6 14.5--- 5.7 4.3---- 2.1------------
1983-08-02 20.0 25.4 16.3--- 7.3 2.7---- 5.5------------
1983-08-01 21.1 29.0 10.8--- 0.7 5.3---- 0.0------------
1983-07-31 17.8 24.0 8.6--- 0.3 1.3---- 0.0------------
1983-07-30 17.5 23.1 14.9--- 5.3 5.0---- 0.0------------
1983-07-29 19.5 24.4 13.6--- 5.0 3.0---- 5.4------------
1983-07-28 23.9 27.5 20.0--- 5.3 3.3---- 0.0------------
1983-07-27 23.6 32.1 11.8--- 3.3 0.3---- 0.0------------
1983-07-26 21.0 27.4 12.0--- 1.3 3.0---- 0.0------------
1983-07-25 15.1 20.9 7.8--- 6.7 1.7---- 0.0------------
1983-07-24 15.7 20.3 11.1--- 8.0 1.0---- 0.0------------
1983-07-23 16.7 22.1 11.4--- 6.3 4.7---- 0.0------------
1983-07-22 11.8 14.0 8.8--- 8.0 4.0---- 1.6------------
1983-07-21 12.7 16.8 7.8--- 4.0 5.0---- 0.0------------
1983-07-20 14.7 25.2 11.0--- 7.0 3.7---- 10.9------------
1983-07-19 23.8 29.0 18.7--- 3.3 3.0---- 9.8------------
1983-07-18 23.0 31.2 11.8--- 2.7 1.7---- 0.0------------
1983-07-17 20.8 26.0 14.9--- 3.0 2.3---- 0.0------------
1983-07-16 19.3 27.5 12.4--- 4.7 2.7---- 0.0------------
1983-07-15 18.8 24.9 12.4--- 2.7 1.0---- 0.0------------
1983-07-14 18.5 22.5 15.2--- 6.3 4.0---- 0.0------------
1983-07-13 20.1 25.5 14.9--- 5.7 3.7---- 4.6------------
1983-07-12 18.5 24.7 16.3--- 4.3 4.3---- 0.8------------
1983-07-11 18.2 28.0 14.3--- 6.3 2.3---- 18.0------------
1983-07-10 22.4 28.4 14.1--- 2.0 2.0---- 0.0------------
1983-07-09 20.9 27.0 12.4--- 1.7 1.3---- 0.0------------
1983-07-08 21.3 26.8 12.5--- 0.0 2.3---- 0.0------------
1983-07-07 21.7 28.0 13.6--- 1.0 1.7---- 0.0------------
1983-07-06 21.2 27.8 11.6--- 0.3 2.3---- 0.0------------
1983-07-05 19.5 25.0 12.0--- 2.0 1.3---- 0.0------------
1983-07-04 20.3 25.6 11.5--- 2.3 1.3---- 0.0------------
1983-07-03 18.6 23.8 11.8--- 3.7 1.0---- 0.0------------
1983-07-02 17.8 23.1 15.1--- 6.0 3.0---- 0.0------------
1983-07-01 19.1 24.6 12.2--- 2.7 2.0---- 0.0------------
1983-06-30 15.9 21.9 7.0--- 2.3 2.7---- 0.0------------
1983-06-29 13.3 18.1 6.8--- 2.3 2.3---- 0.0------------
1983-06-28 15.3 21.1 13.9--- 7.7 2.7---- 0.8------------
1983-06-27 19.8 25.0 15.5--- 5.0 2.3---- 15.5------------
1983-06-26 19.6 24.9 14.1--- 5.3 1.0---- 0.0------------
1983-06-25 20.5 26.4 14.5--- 2.7 4.3---- 9.0------------
1983-06-24 16.6 25.5 6.6--- 0.3 2.3---- 0.0------------
1983-06-23 14.1 19.9 6.6--- 0.3 4.0---- 0.0------------
1983-06-22 15.3 20.7 10.2--- 1.0 6.7---- 0.0------------
1983-06-21 18.4 24.1 11.3--- 1.7 2.3---- 0.0------------
1983-06-20 17.6 22.1 14.5--- 6.3 2.7---- 3.1------------
1983-06-19 13.4 17.1 11.2--- 8.0 3.0---- 1.6------------
1983-06-18 11.2 12.8 8.6--- 8.0 3.7---- 14.4------------
1983-06-17 11.4 13.6 8.4--- 8.0 4.3---- 2.5------------
1983-06-16 11.3 14.2 8.3--- 7.3 5.7---- 0.0------------
1331.1 ms

 

Źródłem pochodzenia danych jest Instytut Meteorologii i Gospodarki Wodnej – Państwowy Instytut Badawczy. Dane Instytutu Meteorologii i Gospodarki Wodnej – Państwowego Instytutu Badawczego zostały przetworzone.

Dane źródłowe można odnaleźć na stronie https://dane.imgw.pl